Racecast

Connor Kephart

Pinecrest Academy Cadence (NV) · 8 · NV D4A4A · Compare head to head

Athlete ratingi 100.4 2024 TF season
Best race 112.9 XC
Races 36
Seasons 6 2018 — 2024

RankedNation #44236·NV #219·Team #16 ?

Rating scale ?
Speed rating — all races

Cross Country

XC speed rating

2022 XC 98.6

Pinecrest Academy Cadence (NV) · Grade 7

Date Meet Event Result Place Ratingi Difficultyi PR/SR Flags
2022-10-17 Silver Bowl Sports Complex & Park 2414m 11:28.6 37th · 2nd on team 98.2 -1.0% ★CR CSR
2022-10-03 Mountain's Edge Regional Park 2414m 11:50.6 41st · 2nd on team 97.6 +0.7% CSR
2022-09-26 Desert Breeze Park 2414m 12:25.5 27th · 2nd on team 95.9 +3.1% ★CR CSR
2022-09-22 James Regional Park 2414m 12:40.7 23rd · 2nd on team 96.3 +6.6% ★CR CSR
2022-09-19 Floyd Lamb Park 2414m 12:41.9 31st · 2nd on team 99.4 +10.4% ★CR CSR
2022-09-12 Cornerstone Park 2414m 11:16.5 24th · 2nd on team 104.2 +3.3% ★PR ★CR SR CSR RSR

2021 XC 99.5

Pinecrest Academy Cadence (NV) · Grade 6

Date Meet Event Result Place Ratingi Difficultyi PR/SR Flags
2021-10-25 Silver Bowl Sports Complex & Park 2414m 11:30.7 29th · 4th on team 99.7 -1.0% CR CSR
2021-10-04 Mountain's Edge Regional Park 2414m 11:24 23rd · 2nd on team 101.6 +0.7% ★CR CSR RSR
2021-09-27 Craig Ranch Park 2414m 11:17.8 25th · 4th on team 101.2 -1.5% PR ★CR SR CSR RSR
2021-09-20 Cornerstone Park 2414m 12:31.6 39th · 4th on team 95.7 +3.3% PR CR SR CSR RSR

2019 XC 108.4

Pinecrest Academy Cadence (NV) · Grade 4

Date Meet Event Result Place Ratingi Difficultyi PR/SR Flags
2019-10-07 Exploration Peak Park 1609m 7:37.4 21st · 2nd on team 106.3 +0.2% ★CR CSR
2019-09-16 Craig Ranch Park 1609m 7:10 21st · 2nd on team 112.9 +0.2% ★PR ★CR ★R SR CSR RSR
2019-09-09 Cornerstone Park 1609m 8:27 16th · 2nd on team 105.9 +10.9% ★CR R SR CSR RSR

2018 XC 96.5

Pinecrest Academy Cadence (NV) · Grade 3

Date Meet Event Result Place Ratingi Difficultyi PR/SR Flags
2018-10-22 Cornerstone Park 1609m 8:29.3 30th · 3rd on team 105.1 +10.9% CR R CSR RSR
2018-10-15 Exploration Peak Park 1609m 8:03 22nd · 2nd on team 99.2 +0.2% CR CSR
2018-10-01 Craig Ranch Park 1609m 7:46.7 27th · 3rd on team 104.0 +0.2% PR CR R SR CSR RSR
2018-09-10 Cornerstone Park 1609m 11:36.8 45th · 4th on team 77.7 +10.9% PR CR R SR CSR RSR

Track & Field

TF speed rating

2024 TF 98.7

Pinecrest Academy Cadence (NV) · Grade 8

Date Meet Event Result Place Ratingi Difficultyi PR/SR Flags
2024-05-06 NCSAA Meet 8 800m 3:01.44 12th · 2nd on team 101.5 +1.9% ★PR SR RSR
2024-04-29 NCSAA Meet 7 400m 1:20.38 36th · 5th on team +1.9%
2024-03-25 NCSAA Meet 2 800m 3:10.58 14th · 2nd on team 95.8 +1.1% PR SR RSR
2024-03-25 NCSAA Meet 2 400m 1:16.23 18th · 4th on team +1.1% ★PR SR

2023 TF 91.2

Pinecrest Academy Cadence (NV) · Grade 7

Date Meet Event Result Place Ratingi Difficultyi PR/SR Flags
2023-05-08 NCSAA Meet #6 800m 3:22.06 22nd · 2nd on team 91.0 +1.6%
2023-05-08 NCSAA Meet #6 400m 1:23.24 31st · 4th on team +1.6%
2023-04-24 NCSAA Meet #4 400m 1:19.79 32nd · 3rd on team +1.8% PR SR
2023-03-27 NCSAA Meet #2 400m 1:22.2 32nd · 2nd on team +1.6% PR SR
2023-03-27 NCSAA Meet #2 800m 3:25.64 18th · 2nd on team 89.6 +1.6%
2023-03-20 NCSAA Meet #1 800m 3:18.19 12th · 2nd on team 92.8 +1.6% PR SR RSR

2022 TF 91.7

Pinecrest Academy Cadence (NV) · Grade 6

Date Meet Event Result Place Ratingi Difficultyi PR/SR Flags
2022-05-23 NCSAA Championship 1600m 7:19.67 11th · 4th on team 92.3 +1.6%
2022-05-09 NCSAA Meet #6 100m 17.63 21st · 3rd on team +1.6%
2022-05-09 NCSAA Meet #6 200m 37.28 13th · 6th on team +1.6%
2022-05-09 NCSAA Meet #6 1600m 7:15.33 5th · 4th on team 93.1 +1.6% ★PR SR RSR
2022-04-25 NCSAA Meet #4 100m 16.25 14th · 4th on team +1.6% ★PR SR
2022-04-25 NCSAA Meet #4 1600m 7:31.04 5th · 3rd on team 89.9 +1.6%
2022-03-21 NCSAA Meet #1 400m 1:26.92 9th · 4th on team +1.6% PR SR
2022-03-21 NCSAA Meet #1 200m 36.15 17th · 4th on team +1.6% ★PR SR
2022-03-21 NCSAA Meet #1 1600m 7:22.45 6th · 2nd on team 91.6 +1.6% PR SR RSR